AFL2608 UUEE-URKK
Flight info
| Callsign | AFL2608 |
|---|---|
| Flight time | N/A |
| Altitude | 35000 |
| Route | TOGMO3J TOGMO M56 ABAGI B105 WGD G481 LARIN G487 BINOL B549 AG B950 SIBAN SIBAN6R |
| Aircraft | B738/M-SDE2E3FGHIRWXY/LB1 |
Departure
| Time | 2026-05-07 12:56 |
|---|---|
| Airport | Sheremetyevo International Airport (UUEE) |
Arrival
| Time | N/A |
|---|---|
| Airport | Krasnodar Pashkovsky International Airport (URKK) |
| Time | Latitude | Longitude | Altitude | Speed | Heading |
|---|---|---|---|---|---|
| 2026-05-07 12:23 | 55.96615 | 37.40989 | 614 ft | 0 kts | 255° |
| 2026-05-07 12:49 | 55.96615 | 37.40990 | 613 ft | 0 kts | 255° |
| 2026-05-07 12:50 | 55.96615 | 37.40989 | 613 ft | 0 kts | 255° |
| 2026-05-07 12:50 | 55.96613 | 37.40978 | 614 ft | 1 kts | 255° |
| 2026-05-07 12:50 | 55.96611 | 37.40959 | 615 ft | 1 kts | 256° |
| 2026-05-07 12:50 | 55.96609 | 37.40937 | 615 ft | 1 kts | 266° |
| 2026-05-07 12:51 | 55.96610 | 37.40915 | 616 ft | 1 kts | 278° |
| 2026-05-07 12:51 | 55.96613 | 37.40892 | 617 ft | 1 kts | 289° |
| 2026-05-07 12:51 | 55.96620 | 37.40880 | 618 ft | 2 kts | 327° |
| 2026-05-07 12:51 | 55.96643 | 37.40863 | 618 ft | 4 kts | 340° |
| 2026-05-07 12:52 | 55.96679 | 37.40844 | 619 ft | 6 kts | 346° |
| 2026-05-07 12:52 | 55.96740 | 37.40842 | 618 ft | 11 kts | 1° |
| 2026-05-07 12:52 | 55.96825 | 37.40868 | 616 ft | 15 kts | 50° |
| 2026-05-07 12:52 | 55.96865 | 37.41084 | 613 ft | 20 kts | 75° |
| 2026-05-07 12:53 | 55.96906 | 37.41356 | 614 ft | 24 kts | 75° |
| 2026-05-07 12:53 | 55.96952 | 37.41665 | 613 ft | 28 kts | 75° |
| 2026-05-07 12:53 | 55.97005 | 37.42020 | 610 ft | 31 kts | 74° |
| 2026-05-07 12:53 | 55.97058 | 37.42370 | 606 ft | 27 kts | 75° |
| 2026-05-07 12:54 | 55.97109 | 37.42708 | 600 ft | 28 kts | 74° |
| 2026-05-07 12:54 | 55.97162 | 37.43015 | 597 ft | 22 kts | 48° |
| 2026-05-07 12:54 | 55.97306 | 37.42988 | 600 ft | 21 kts | 341° |
| 2026-05-07 12:54 | 55.97345 | 37.42860 | 603 ft | 4 kts | 253° |
| 2026-05-07 12:55 | 55.97345 | 37.42859 | 603 ft | 0 kts | 253° |
| 2026-05-07 12:55 | 55.97344 | 37.42856 | 603 ft | 2 kts | 253° |
| 2026-05-07 12:55 | 55.97284 | 37.42469 | 607 ft | 72 kts | 254° |
| 2026-05-07 12:55 | 55.97084 | 37.41125 | 615 ft | 148 kts | 255° |
| 2026-05-07 12:56 | 55.96796 | 37.39188 | 1211 ft | 165 kts | 254° |
| 2026-05-07 12:56 | 55.96509 | 37.37262 | 2164 ft | 171 kts | 249° |
| 2026-05-07 12:56 | 55.95889 | 37.35439 | 3069 ft | 181 kts | 231° |
| 2026-05-07 12:56 | 55.95077 | 37.33714 | 3911 ft | 192 kts | 234° |
| 2026-05-07 12:57 | 55.94280 | 37.31729 | 4722 ft | 206 kts | 237° |
| 2026-05-07 12:57 | 55.93470 | 37.29544 | 5558 ft | 221 kts | 238° |
| 2026-05-07 12:57 | 55.92639 | 37.27289 | 6603 ft | 225 kts | 237° |
| 2026-05-07 12:57 | 55.91723 | 37.24831 | 6962 ft | 261 kts | 237° |
| 2026-05-07 12:58 | 55.90604 | 37.21851 | 6916 ft | 312 kts | 237° |
| 2026-05-07 12:58 | 55.89345 | 37.18431 | 6881 ft | 357 kts | 239° |
| 2026-05-07 12:58 | 55.88117 | 37.14329 | 6890 ft | 397 kts | 244° |
| 2026-05-07 12:58 | 55.87069 | 37.09614 | 7709 ft | 413 kts | 255° |
| 2026-05-07 12:59 | 55.86765 | 37.04657 | 9146 ft | 413 kts | 270° |
| 2026-05-07 12:59 | 55.87178 | 36.99631 | 10643 ft | 412 kts | 281° |
| 2026-05-07 12:59 | 55.87894 | 36.94828 | 12015 ft | 403 kts | 284° |
| 2026-05-07 12:59 | 55.88696 | 36.90122 | 12768 ft | 394 kts | 285° |
| 2026-05-07 13:00 | 55.89503 | 36.85563 | 13790 ft | 390 kts | 285° |
| 2026-05-07 13:00 | 55.90296 | 36.80994 | 14662 ft | 380 kts | 284° |
| 2026-05-07 13:00 | 55.90883 | 36.76557 | 14848 ft | 354 kts | 275° |
| 2026-05-07 13:00 | 55.90845 | 36.72350 | 14879 ft | 333 kts | 261° |
| 2026-05-07 13:01 | 55.90380 | 36.68455 | 14884 ft | 315 kts | 256° |
| 2026-05-07 13:01 | 55.89819 | 36.64819 | 14891 ft | 299 kts | 254° |
| 2026-05-07 13:01 | 55.89266 | 36.61349 | 14909 ft | 282 kts | 255° |
| 2026-05-07 13:01 | 55.88767 | 36.58094 | 14906 ft | 268 kts | 255° |
| 2026-05-07 13:02 | 55.88262 | 36.54876 | 14931 ft | 278 kts | 251° |
| 2026-05-07 13:02 | 55.87409 | 36.51804 | 15244 ft | 282 kts | 235° |
| 2026-05-07 13:02 | 55.85988 | 36.49387 | 15861 ft | 290 kts | 218° |
| 2026-05-07 13:02 | 55.84209 | 36.47666 | 16492 ft | 298 kts | 206° |
| 2026-05-07 13:03 | 55.82155 | 36.46807 | 17120 ft | 310 kts | 187° |
| 2026-05-07 13:03 | 55.80007 | 36.47125 | 17755 ft | 318 kts | 177° |
| 2026-05-07 13:03 | 55.77823 | 36.47885 | 18393 ft | 324 kts | 170° |
| 2026-05-07 13:03 | 55.75691 | 36.49236 | 19036 ft | 331 kts | 161° |
| 2026-05-07 13:04 | 55.73645 | 36.51106 | 19681 ft | 335 kts | 155° |
| 2026-05-07 13:04 | 55.71639 | 36.53218 | 20329 ft | 337 kts | 153° |
| 2026-05-07 13:04 | 55.69675 | 36.55385 | 21094 ft | 333 kts | 153° |
| 2026-05-07 13:04 | 55.67746 | 36.57531 | 21877 ft | 328 kts | 153° |
| 2026-05-07 13:05 | 55.65845 | 36.59635 | 22664 ft | 321 kts | 153° |
| 2026-05-07 13:05 | 55.63974 | 36.61690 | 23367 ft | 317 kts | 152° |
| 2026-05-07 13:05 | 55.62187 | 36.63898 | 24047 ft | 316 kts | 144° |
| 2026-05-07 13:05 | 55.60627 | 36.66608 | 24736 ft | 314 kts | 132° |
| 2026-05-07 13:06 | 55.59366 | 36.69706 | 25422 ft | 308 kts | 126° |
| 2026-05-07 13:06 | 55.58269 | 36.72832 | 26079 ft | 299 kts | 124° |
| 2026-05-07 13:06 | 55.57217 | 36.75962 | 26539 ft | 296 kts | 124° |
| 2026-05-07 13:06 | 55.56177 | 36.79049 | 26889 ft | 296 kts | 124° |
| 2026-05-07 13:07 | 55.55093 | 36.82207 | 26982 ft | 306 kts | 125° |
| 2026-05-07 13:07 | 55.53966 | 36.85442 | 27122 ft | 313 kts | 124° |
| 2026-05-07 13:07 | 55.52811 | 36.88761 | 27224 ft | 323 kts | 124° |
| 2026-05-07 13:07 | 55.51626 | 36.92164 | 27314 ft | 332 kts | 124° |
| 2026-05-07 13:08 | 55.50397 | 36.95679 | 27438 ft | 341 kts | 124° |
| 2026-05-07 13:08 | 55.49149 | 36.99246 | 27524 ft | 351 kts | 124° |
| 2026-05-07 13:08 | 55.47851 | 37.02945 | 27624 ft | 360 kts | 124° |
| 2026-05-07 13:08 | 55.46521 | 37.06735 | 27862 ft | 365 kts | 124° |
| 2026-05-07 13:09 | 55.45146 | 37.10480 | 28170 ft | 368 kts | 127° |
| 2026-05-07 13:09 | 55.43556 | 37.13992 | 28566 ft | 365 kts | 137° |
| 2026-05-07 13:09 | 55.41658 | 37.16930 | 28986 ft | 361 kts | 147° |
| 2026-05-07 13:09 | 55.39570 | 37.19288 | 29376 ft | 358 kts | 153° |
| 2026-05-07 13:10 | 55.37402 | 37.21367 | 29688 ft | 359 kts | 155° |
| 2026-05-07 13:10 | 55.35177 | 37.23425 | 29923 ft | 363 kts | 155° |
| 2026-05-07 13:10 | 55.30657 | 37.27679 | 30094 ft | 379 kts | 154° |
| 2026-05-07 13:11 | 55.25914 | 37.32316 | 30219 ft | 397 kts | 151° |
| 2026-05-07 13:11 | 55.23594 | 37.35047 | 30476 ft | 402 kts | 144° |
| 2026-05-07 13:11 | 55.21487 | 37.38251 | 31082 ft | 397 kts | 136° |
| 2026-05-07 13:12 | 55.19653 | 37.41848 | 31713 ft | 390 kts | 129° |
| 2026-05-07 13:12 | 55.18125 | 37.45766 | 32349 ft | 382 kts | 121° |
| 2026-05-07 13:12 | 55.16919 | 37.49792 | 32976 ft | 373 kts | 115° |
| 2026-05-07 13:12 | 55.15846 | 37.53894 | 33392 ft | 369 kts | 115° |
| 2026-05-07 13:13 | 55.13808 | 37.62228 | 33568 ft | 380 kts | 109° |
| 2026-05-07 13:13 | 55.12441 | 37.71325 | 33738 ft | 392 kts | 102° |
| 2026-05-07 13:14 | 55.11431 | 37.80770 | 34057 ft | 400 kts | 101° |
| 2026-05-07 13:14 | 55.10846 | 37.85437 | 34659 ft | 391 kts | 105° |
| 2026-05-07 13:14 | 55.09956 | 37.89862 | 34871 ft | 390 kts | 117° |
| 2026-05-07 13:15 | 55.08578 | 37.93935 | 34916 ft | 394 kts | 128° |
| 2026-05-07 13:15 | 55.06814 | 37.97705 | 34936 ft | 398 kts | 133° |
| 2026-05-07 13:15 | 55.02961 | 38.04776 | 34926 ft | 410 kts | 136° |
| 2026-05-07 13:16 | 54.98921 | 38.11913 | 34926 ft | 422 kts | 136° |
| 2026-05-07 13:16 | 54.94755 | 38.19305 | 34919 ft | 435 kts | 135° |
| 2026-05-07 13:17 | 54.90112 | 38.26194 | 34916 ft | 445 kts | 146° |
| 2026-05-07 13:17 | 54.84846 | 38.32113 | 34922 ft | 457 kts | 149° |
| 2026-05-07 13:18 | 54.79354 | 38.38106 | 34917 ft | 468 kts | 148° |
| 2026-05-07 13:18 | 54.73907 | 38.44192 | 34924 ft | 466 kts | 148° |
| 2026-05-07 13:19 | 54.68510 | 38.50340 | 34921 ft | 466 kts | 147° |
| 2026-05-07 13:19 | 54.63122 | 38.56529 | 34930 ft | 467 kts | 147° |
| 2026-05-07 13:20 | 54.57727 | 38.62740 | 34926 ft | 466 kts | 147° |
| 2026-05-07 13:20 | 54.52347 | 38.68921 | 34931 ft | 466 kts | 148° |
| 2026-05-07 13:21 | 54.46948 | 38.75113 | 34932 ft | 467 kts | 148° |
| 2026-05-07 13:21 | 54.41544 | 38.81290 | 34935 ft | 467 kts | 147° |
| 2026-05-07 13:22 | 54.36132 | 38.87457 | 34941 ft | 466 kts | 147° |
| 2026-05-07 13:22 | 54.30732 | 38.93590 | 34941 ft | 466 kts | 147° |
| 2026-05-07 13:23 | 54.25337 | 38.99699 | 34945 ft | 466 kts | 147° |
| 2026-05-07 13:23 | 54.19964 | 39.05763 | 34944 ft | 466 kts | 147° |
| 2026-05-07 13:24 | 54.14582 | 39.11815 | 34940 ft | 465 kts | 147° |
| 2026-05-07 13:24 | 54.09171 | 39.17881 | 34937 ft | 467 kts | 147° |
| 2026-05-07 13:25 | 54.03756 | 39.23934 | 34940 ft | 467 kts | 147° |
| 2026-05-07 13:25 | 53.98353 | 39.29954 | 34943 ft | 466 kts | 147° |
| 2026-05-07 13:26 | 53.92941 | 39.35965 | 34946 ft | 466 kts | 147° |
| 2026-05-07 13:26 | 53.87531 | 39.41954 | 34948 ft | 466 kts | 147° |
| 2026-05-07 13:27 | 53.82087 | 39.47961 | 34948 ft | 465 kts | 147° |
| 2026-05-07 13:27 | 53.76678 | 39.53911 | 34952 ft | 466 kts | 147° |
| 2026-05-07 13:28 | 53.71241 | 39.59874 | 34964 ft | 466 kts | 147° |
| 2026-05-07 13:28 | 53.65811 | 39.65812 | 34965 ft | 466 kts | 148° |
| 2026-05-07 13:29 | 53.62212 | 39.69735 | 34963 ft | 466 kts | 148° |